createdAt,value
2018-08-11T00:00:18.272Z,17.90
2018-08-11T00:02:46.706Z,17.90
2018-08-11T00:05:15.008Z,17.90
2018-08-11T00:07:43.258Z,18.00
2018-08-11T00:10:11.518Z,18.00
2018-08-11T00:12:39.836Z,18.10
2018-08-11T00:15:10.693Z,18.10
2018-08-11T00:17:39.237Z,18.10
2018-08-11T00:20:09.888Z,18.10
2018-08-11T00:22:38.589Z,18.10
2018-08-11T00:25:07.184Z,18.10
2018-08-11T00:27:35.423Z,18.10
2018-08-11T00:30:05.616Z,18.00
2018-08-11T00:32:33.853Z,18.00
2018-08-11T00:35:02.146Z,18.20
2018-08-11T00:37:30.373Z,18.20
2018-08-11T00:39:58.594Z,18.30
2018-08-11T00:42:26.825Z,18.30
2018-08-11T00:44:55.052Z,18.40
2018-08-11T00:47:23.381Z,18.50
2018-08-11T00:49:51.616Z,18.50
2018-08-11T00:52:19.865Z,18.40
2018-08-11T00:54:48.137Z,18.40
2018-08-11T00:57:16.405Z,18.30
2018-08-11T00:59:44.680Z,18.30
2018-08-11T01:02:12.992Z,18.20
2018-08-11T01:04:41.192Z,18.20
2018-08-11T01:07:09.457Z,18.20
2018-08-11T01:09:37.681Z,18.20
2018-08-11T01:12:06.250Z,18.30
2018-08-11T01:14:34.491Z,18.20
2018-08-11T01:17:02.763Z,18.30
2018-08-11T01:19:31.036Z,18.30
2018-08-11T01:21:59.269Z,18.40
2018-08-11T01:24:27.523Z,18.40
2018-08-11T01:26:55.752Z,18.40
2018-08-11T01:29:30.719Z,18.50
2018-08-11T01:31:58.994Z,18.50
2018-08-11T01:34:27.208Z,18.50
2018-08-11T01:36:55.477Z,18.60
2018-08-11T01:39:23.775Z,18.60
2018-08-11T01:41:51.989Z,18.60
2018-08-11T01:44:20.365Z,18.60
2018-08-11T01:46:48.567Z,18.60
2018-08-11T01:49:16.843Z,18.50
2018-08-11T01:51:45.123Z,18.10
2018-08-11T01:54:13.363Z,17.90
2018-08-11T01:56:41.595Z,17.90
2018-08-11T01:59:10.102Z,17.90
2018-08-11T02:01:38.370Z,17.80
2018-08-11T02:04:06.630Z,17.80
2018-08-11T02:06:34.887Z,17.80
2018-08-11T02:09:03.213Z,17.80
2018-08-11T02:11:31.426Z,17.70
2018-08-11T02:13:59.705Z,17.60
2018-08-11T02:16:27.978Z,17.50
2018-08-11T02:18:56.184Z,17.30
2018-08-11T02:21:24.432Z,17.10
2018-08-11T02:23:52.625Z,17.00
2018-08-11T02:26:20.879Z,16.90
2018-08-11T02:28:49.130Z,16.90
2018-08-11T02:31:17.335Z,16.80
2018-08-11T02:33:45.552Z,16.80
2018-08-11T02:36:13.787Z,16.60
2018-08-11T02:38:42.016Z,16.70
2018-08-11T02:41:10.275Z,16.70
2018-08-11T02:43:38.536Z,16.50
2018-08-11T02:46:06.768Z,16.50
2018-08-11T02:48:35.013Z,16.50
2018-08-11T02:51:03.520Z,16.40
2018-08-11T02:53:31.730Z,16.50
2018-08-11T02:55:59.988Z,16.50
2018-08-11T02:58:28.203Z,16.40
2018-08-11T03:00:56.420Z,16.30
2018-08-11T03:03:24.684Z,16.30
2018-08-11T03:05:52.901Z,16.20
2018-08-11T03:08:21.121Z,16.30
2018-08-11T03:10:49.364Z,16.30
2018-08-11T03:13:18.057Z,16.30
2018-08-11T03:15:46.278Z,16.30
2018-08-11T03:18:14.693Z,16.30
2018-08-11T03:20:42.906Z,16.30
2018-08-11T03:23:11.142Z,16.20
2018-08-11T03:25:39.334Z,16.30
2018-08-11T03:28:07.666Z,16.30
2018-08-11T03:30:35.894Z,16.20
2018-08-11T03:33:04.086Z,16.30
2018-08-11T03:35:32.396Z,16.20
2018-08-11T03:38:00.812Z,16.30
2018-08-11T03:40:29.072Z,16.10
2018-08-11T03:42:57.312Z,16.10
2018-08-11T03:45:25.544Z,16.10
2018-08-11T03:47:53.813Z,16.10
2018-08-11T03:50:22.063Z,16.00
2018-08-11T03:52:50.281Z,16.00
2018-08-11T03:55:18.576Z,16.10
2018-08-11T03:57:46.809Z,16.10
2018-08-11T04:00:15.078Z,16.00
2018-08-11T04:02:43.353Z,15.90
2018-08-11T04:05:11.583Z,15.80
2018-08-11T04:07:39.816Z,15.70
2018-08-11T04:10:08.036Z,15.70
2018-08-11T04:12:36.263Z,15.70
2018-08-11T04:15:04.843Z,15.60
2018-08-11T04:17:39.944Z,15.60
2018-08-11T04:20:09.982Z,15.60
2018-08-11T04:22:38.284Z,15.50
2018-08-11T04:25:07.532Z,15.50
2018-08-11T04:27:36.038Z,15.50
2018-08-11T04:30:05.544Z,15.50
2018-08-11T04:32:33.980Z,15.40
2018-08-11T04:35:02.204Z,15.40
2018-08-11T04:37:30.419Z,15.40
2018-08-11T04:39:58.982Z,15.40
2018-08-11T04:42:27.186Z,15.50
2018-08-11T04:44:55.388Z,15.50
2018-08-11T04:47:23.745Z,15.50
2018-08-11T04:49:51.970Z,15.40
2018-08-11T04:52:20.566Z,15.40
2018-08-11T04:54:55.296Z,15.40
2018-08-11T04:57:23.493Z,15.40
2018-08-11T04:59:51.675Z,15.50
2018-08-11T05:02:19.928Z,15.40
2018-08-11T05:04:48.168Z,15.40
2018-08-11T05:07:16.375Z,15.40
2018-08-11T05:09:44.600Z,15.40
2018-08-11T05:12:12.793Z,15.40
2018-08-11T05:14:40.993Z,15.50
2018-08-11T05:17:09.212Z,15.70
2018-08-11T05:19:37.420Z,15.90
2018-08-11T05:22:05.897Z,16.00
2018-08-11T05:24:34.141Z,16.10
2018-08-11T05:27:02.389Z,16.30
2018-08-11T05:29:30.633Z,16.40
2018-08-11T05:31:58.866Z,16.50
2018-08-11T05:34:27.077Z,16.50
2018-08-11T05:36:55.261Z,16.60
2018-08-11T05:39:23.508Z,16.60
2018-08-11T05:41:51.716Z,16.70
2018-08-11T05:44:19.954Z,16.80
2018-08-11T05:46:48.153Z,17.00
2018-08-11T05:49:16.460Z,17.20
2018-08-11T05:51:44.692Z,17.20
2018-08-11T05:54:12.963Z,17.20
2018-08-11T05:56:41.182Z,17.30
2018-08-11T05:59:09.455Z,17.30
2018-08-11T06:01:37.708Z,17.30
2018-08-11T06:04:06.069Z,17.40
2018-08-11T06:06:34.267Z,17.40
2018-08-11T06:09:02.490Z,17.50
2018-08-11T06:11:30.713Z,17.50
2018-08-11T06:13:58.911Z,17.50
2018-08-11T06:16:27.540Z,17.50
2018-08-11T06:18:55.760Z,17.50
2018-08-11T06:21:23.996Z,17.50
2018-08-11T06:23:52.215Z,17.50
2018-08-11T06:26:20.424Z,17.60
2018-08-11T06:28:48.736Z,17.60
2018-08-11T06:31:16.982Z,17.80
2018-08-11T06:33:45.189Z,17.90
2018-08-11T06:36:13.495Z,18.00
2018-08-11T06:38:41.724Z,17.90
2018-08-11T06:41:10.115Z,18.00
2018-08-11T06:43:38.378Z,18.20
2018-08-11T06:46:06.737Z,18.50
2018-08-11T06:48:34.994Z,18.60
2018-08-11T06:51:03.227Z,18.80
2018-08-11T06:53:31.445Z,18.90
2018-08-11T06:55:59.691Z,19.00
2018-08-11T06:58:27.912Z,19.20
2018-08-11T07:00:56.119Z,19.20
2018-08-11T07:03:24.353Z,19.20
2018-08-11T07:05:52.547Z,19.30
2018-08-11T07:08:20.892Z,19.30
2018-08-11T07:10:49.133Z,19.30
2018-08-11T07:13:17.377Z,19.20
2018-08-11T07:15:45.941Z,19.30
2018-08-11T07:18:14.199Z,19.30
2018-08-11T07:20:42.465Z,19.50
2018-08-11T07:23:10.720Z,19.80
2018-08-11T07:25:38.996Z,20.20
2018-08-11T07:28:07.352Z,20.50
2018-08-11T07:30:35.655Z,20.80
2018-08-11T07:33:03.940Z,21.00
2018-08-11T07:35:32.520Z,21.10
2018-08-11T07:38:00.783Z,24.20
2018-08-11T07:40:29.078Z,24.50
2018-08-11T07:42:57.342Z,24.70
2018-08-11T07:45:25.860Z,23.60
2018-08-11T07:47:54.105Z,22.80
2018-08-11T07:50:22.412Z,22.00
2018-08-11T07:52:50.581Z,23.60
2018-08-11T07:55:18.871Z,28.10
2018-08-11T07:57:47.394Z,28.60
2018-08-11T08:00:15.642Z,28.20
2018-08-11T08:02:43.880Z,26.70
2018-08-11T08:05:12.109Z,27.10
2018-08-11T08:10:08.758Z,32.30
2018-08-11T08:12:38.824Z,32.10
2018-08-11T08:15:07.116Z,33.80
2018-08-11T08:17:36.013Z,31.60
2018-08-11T08:20:04.512Z,29.70
2018-08-11T08:22:32.762Z,31.20
2018-08-11T08:25:01.017Z,32.20
2018-08-11T08:27:29.297Z,33.90
2018-08-11T08:29:57.555Z,33.00
2018-08-11T08:32:25.832Z,33.30
2018-08-11T08:34:54.088Z,37.70
2018-08-11T08:37:22.317Z,39.20
2018-08-11T08:39:50.557Z,40.70
2018-08-11T08:42:18.800Z,42.30
2018-08-11T08:44:47.069Z,43.20
2018-08-11T08:49:44.798Z,45.50
2018-08-11T08:52:13.050Z,44.90
2018-08-11T08:54:41.310Z,42.40
2018-08-11T08:57:09.514Z,40.30
2018-08-11T08:59:38.640Z,38.70
2018-08-11T09:02:06.909Z,39.90
2018-08-11T09:04:35.137Z,34.30
2018-08-11T09:07:03.704Z,32.90
2018-08-11T09:09:31.929Z,30.00
2018-08-11T09:12:00.176Z,30.60
2018-08-11T09:14:28.384Z,33.50
2018-08-11T09:16:56.792Z,36.20
2018-08-11T09:19:25.151Z,40.30
2018-08-11T09:21:53.344Z,40.80
2018-08-11T09:24:21.592Z,36.00
2018-08-11T09:26:49.771Z,33.40
2018-08-11T09:29:18.031Z,32.80
2018-08-11T09:31:46.254Z,35.10
2018-08-11T09:34:14.434Z,36.40
2018-08-11T09:36:42.682Z,39.20
2018-08-11T09:39:12.103Z,41.70
2018-08-11T09:41:40.460Z,35.90
2018-08-11T09:44:09.337Z,33.60
2018-08-11T09:46:37.581Z,32.90
2018-08-11T09:49:05.880Z,32.50
2018-08-11T09:51:34.278Z,35.00
2018-08-11T09:54:02.879Z,35.70
2018-08-11T09:56:31.154Z,34.10
2018-08-11T09:58:59.394Z,36.60
2018-08-11T10:01:33.125Z,41.60
2018-08-11T10:04:01.521Z,42.10
2018-08-11T10:06:29.802Z,45.00
2018-08-11T10:08:58.352Z,43.60
2018-08-11T10:11:26.593Z,40.10
2018-08-11T10:13:54.794Z,37.30
2018-08-11T10:16:23.063Z,37.40
2018-08-11T10:18:51.261Z,40.40
2018-08-11T10:21:19.522Z,42.90
2018-08-11T10:23:48.327Z,45.40
2018-08-11T10:26:16.529Z,45.50
2018-08-11T10:28:44.770Z,42.90
2018-08-11T10:31:13.203Z,41.40
2018-08-11T10:33:41.439Z,35.70
2018-08-11T10:36:09.694Z,33.10
2018-08-11T10:38:38.040Z,32.30
2018-08-11T10:41:06.260Z,33.20
2018-08-11T10:43:34.517Z,35.50
2018-08-11T10:46:03.727Z,39.00
2018-08-11T10:48:32.073Z,41.80
2018-08-11T10:51:00.667Z,42.80
2018-08-11T10:53:29.218Z,40.00
2018-08-11T10:55:57.534Z,39.50
2018-08-11T10:58:25.777Z,35.10
2018-08-11T11:00:54.017Z,34.60
2018-08-11T11:03:22.298Z,33.80
2018-08-11T11:05:50.563Z,33.50
2018-08-11T11:08:18.821Z,32.90
2018-08-11T11:10:47.107Z,31.50
2018-08-11T11:13:15.359Z,31.40
2018-08-11T11:15:43.593Z,30.70
2018-08-11T11:18:11.927Z,30.40
2018-08-11T11:20:40.186Z,29.40
2018-08-11T11:23:08.444Z,29.00
2018-08-11T11:25:36.744Z,28.40
2018-08-11T11:28:05.081Z,28.40
2018-08-11T11:30:33.310Z,28.60
2018-08-11T11:33:01.547Z,30.20
2018-08-11T11:35:29.761Z,32.40
2018-08-11T11:37:58.036Z,33.10
2018-08-11T11:40:26.273Z,33.80
2018-08-11T11:42:54.595Z,33.10
2018-08-11T11:45:22.861Z,31.80
2018-08-11T11:47:51.187Z,29.50
2018-08-11T11:50:19.432Z,29.40
2018-08-11T11:52:47.637Z,29.30
2018-08-11T11:55:15.965Z,29.10
2018-08-11T11:57:44.196Z,28.60
2018-08-11T12:00:12.512Z,28.40
2018-08-11T12:02:40.765Z,27.80
2018-08-11T12:05:09.073Z,27.70
2018-08-11T12:07:37.350Z,27.40
2018-08-11T12:10:05.880Z,27.40
2018-08-11T12:12:34.086Z,27.40
2018-08-11T12:15:02.341Z,27.50
2018-08-11T12:17:30.616Z,27.50
2018-08-11T12:19:58.851Z,27.60
2018-08-11T12:22:27.116Z,27.60
2018-08-11T12:24:55.462Z,27.50
2018-08-11T12:27:23.957Z,27.30
2018-08-11T12:29:52.236Z,27.00
2018-08-11T12:32:20.504Z,26.80
2018-08-11T12:34:48.878Z,26.50
2018-08-11T12:37:17.104Z,26.40
2018-08-11T12:39:45.325Z,26.20
2018-08-11T12:42:13.578Z,26.20
2018-08-11T12:44:41.885Z,26.20
2018-08-11T12:47:10.161Z,26.00
2018-08-11T12:49:38.644Z,25.70
2018-08-11T12:52:06.896Z,25.70
2018-08-11T12:54:35.140Z,25.30
2018-08-11T12:57:03.512Z,25.70
2018-08-11T12:59:31.752Z,26.10
2018-08-11T13:01:59.974Z,26.40
2018-08-11T13:04:28.186Z,26.40
2018-08-11T13:06:56.485Z,26.50
2018-08-11T13:09:24.630Z,26.40
2018-08-11T13:11:53.465Z,26.60
2018-08-11T13:17:01.807Z,26.50
2018-08-11T13:19:30.416Z,26.10
2018-08-11T13:21:58.676Z,26.00
2018-08-11T13:24:26.910Z,25.70
2018-08-11T13:26:55.804Z,25.80
2018-08-11T13:29:24.037Z,26.00
2018-08-11T13:31:52.272Z,26.00
2018-08-11T13:34:21.299Z,25.80
2018-08-11T13:36:49.828Z,25.50
2018-08-11T13:39:18.092Z,25.60
2018-08-11T13:41:47.694Z,26.00
2018-08-11T13:44:17.104Z,26.10
2018-08-11T13:46:45.363Z,26.10
2018-08-11T13:49:13.612Z,26.00
2018-08-11T13:51:41.853Z,26.00
2018-08-11T13:54:10.061Z,25.80
2018-08-11T13:56:38.909Z,25.70
2018-08-11T13:59:07.320Z,25.80
2018-08-11T14:01:36.389Z,25.90
2018-08-11T14:04:04.621Z,26.00
2018-08-11T14:06:32.849Z,26.10
2018-08-11T14:09:01.084Z,26.30
2018-08-11T14:11:29.304Z,26.40
2018-08-11T14:13:57.552Z,26.20
2018-08-11T14:16:25.828Z,26.30
2018-08-11T14:18:54.135Z,26.40
2018-08-11T14:21:25.738Z,26.60
2018-08-11T14:24:00.514Z,27.00
2018-08-11T14:26:28.737Z,27.20
2018-08-11T14:28:57.041Z,27.40
2018-08-11T14:31:25.520Z,27.40
2018-08-11T14:33:54.968Z,27.60
2018-08-11T14:36:27.124Z,27.80
2018-08-11T14:39:01.940Z,27.90
2018-08-11T14:41:35.177Z,27.80
2018-08-11T14:44:04.790Z,27.50
2018-08-11T14:46:36.658Z,27.40
2018-08-11T14:49:04.959Z,26.50
2018-08-11T14:51:33.414Z,26.40
2018-08-11T14:54:01.779Z,25.80
2018-08-11T14:56:30.029Z,25.00
2018-08-11T14:58:58.316Z,25.20
2018-08-11T15:01:26.593Z,25.60
2018-08-11T15:03:54.824Z,25.60
2018-08-11T15:06:23.188Z,25.60
2018-08-11T15:08:51.468Z,25.70
2018-08-11T15:11:19.768Z,25.70
2018-08-11T15:16:16.137Z,25.40
2018-08-11T15:18:44.281Z,25.30
2018-08-11T15:21:12.567Z,25.10
2018-08-11T15:23:40.855Z,24.80
2018-08-11T15:26:09.303Z,24.70
2018-08-11T15:28:37.630Z,24.50
2018-08-11T15:31:05.873Z,24.40
2018-08-11T15:33:34.229Z,24.40
2018-08-11T15:36:02.559Z,24.00
2018-08-11T15:38:30.966Z,24.20
2018-08-11T15:40:59.348Z,24.50
2018-08-11T15:43:27.572Z,24.60
2018-08-11T15:45:56.150Z,24.60
2018-08-11T15:48:24.430Z,24.60
2018-08-11T15:50:52.785Z,24.60
2018-08-11T15:53:21.092Z,24.50
2018-08-11T15:55:49.433Z,24.40
2018-08-11T15:58:17.760Z,24.20
2018-08-11T16:00:46.124Z,24.20
2018-08-11T16:03:14.583Z,24.40
2018-08-11T16:05:42.771Z,24.70
2018-08-11T16:08:11.166Z,24.90
2018-08-11T16:10:39.585Z,24.80
2018-08-11T16:13:07.816Z,24.70
2018-08-11T16:15:36.125Z,24.70
2018-08-11T16:18:04.312Z,24.60
2018-08-11T16:20:32.464Z,24.20
2018-08-11T16:23:02.327Z,24.10
2018-08-11T16:25:30.898Z,23.90
2018-08-11T16:27:59.539Z,23.70
2018-08-11T16:30:27.768Z,23.60
2018-08-11T16:32:55.976Z,23.60
2018-08-11T16:35:25.214Z,23.70
2018-08-11T16:37:53.477Z,23.90
2018-08-11T16:40:21.687Z,24.00
2018-08-11T16:42:50.361Z,23.90
2018-08-11T16:45:18.645Z,23.70
2018-08-11T16:47:46.882Z,23.60
2018-08-11T16:50:16.179Z,23.60
2018-08-11T16:52:44.421Z,23.60
2018-08-11T16:55:12.691Z,23.70
2018-08-11T16:57:40.952Z,23.70
2018-08-11T17:00:11.695Z,23.70
2018-08-11T17:02:41.224Z,23.80
2018-08-11T17:05:09.482Z,23.80
2018-08-11T17:07:37.737Z,23.90
2018-08-11T17:10:07.278Z,23.80
2018-08-11T17:12:35.776Z,23.50
2018-08-11T17:15:04.032Z,23.40
2018-08-11T17:17:32.287Z,23.40
2018-08-11T17:22:28.751Z,23.20
2018-08-11T17:24:56.959Z,23.10
2018-08-11T17:27:25.331Z,23.00
2018-08-11T17:29:54.238Z,22.90
2018-08-11T17:32:22.928Z,22.80
2018-08-11T17:34:51.183Z,22.70
2018-08-11T17:37:19.509Z,22.60
2018-08-11T17:39:47.788Z,22.50
2018-08-11T17:42:16.031Z,22.40
2018-08-11T17:44:44.673Z,22.30
2018-08-11T17:47:13.351Z,22.30
2018-08-11T17:49:41.710Z,22.20
2018-08-11T17:52:09.965Z,22.10
2018-08-11T17:54:38.180Z,22.20
2018-08-11T17:57:06.400Z,22.20
2018-08-11T17:59:34.623Z,22.10
2018-08-11T18:02:02.883Z,22.10
2018-08-11T18:04:31.092Z,22.10
2018-08-11T18:06:59.358Z,21.90
2018-08-11T18:09:27.615Z,21.80
2018-08-11T18:11:55.831Z,21.80
2018-08-11T18:14:24.044Z,21.80
2018-08-11T18:16:52.261Z,21.80
2018-08-11T18:19:20.461Z,21.90
2018-08-11T18:21:48.902Z,21.80
2018-08-11T18:24:17.130Z,21.80
2018-08-11T18:26:45.367Z,21.80
2018-08-11T18:29:13.629Z,21.60
2018-08-11T18:31:41.907Z,21.50
2018-08-11T18:34:10.204Z,21.50
2018-08-11T18:36:38.772Z,21.40
2018-08-11T18:39:14.289Z,21.30
2018-08-11T18:41:43.270Z,21.30
2018-08-11T18:44:12.494Z,21.30
2018-08-11T18:46:40.729Z,21.30
2018-08-11T18:49:09.102Z,21.30
2018-08-11T18:51:37.365Z,21.30
2018-08-11T18:54:05.666Z,21.20
2018-08-11T18:56:33.951Z,21.20
2018-08-11T18:59:02.232Z,21.00
2018-08-11T19:01:30.532Z,21.00
2018-08-11T19:03:58.762Z,20.90
2018-08-11T19:06:27.075Z,20.80
2018-08-11T19:08:55.329Z,20.80
2018-08-11T19:11:23.510Z,20.80
2018-08-11T19:13:51.807Z,20.70
2018-08-11T19:16:20.104Z,20.70
2018-08-11T19:18:48.484Z,20.60
2018-08-11T19:21:16.715Z,20.50
2018-08-11T19:23:44.991Z,20.50
2018-08-11T19:26:13.325Z,20.40
2018-08-11T19:28:41.551Z,20.10
2018-08-11T19:31:09.882Z,20.00
2018-08-11T19:33:38.126Z,19.90
2018-08-11T19:36:06.722Z,19.70
2018-08-11T19:38:35.494Z,19.60
2018-08-11T19:41:03.784Z,19.50
2018-08-11T19:43:31.970Z,19.40
2018-08-11T19:46:00.359Z,19.30
2018-08-11T19:48:28.531Z,19.30
2018-08-11T19:50:56.827Z,19.20
2018-08-11T19:53:26.561Z,19.20
2018-08-11T19:55:54.864Z,19.10
2018-08-11T19:58:23.142Z,19.00
2018-08-11T20:00:51.343Z,18.70
2018-08-11T20:03:19.596Z,18.60
2018-08-11T20:05:47.878Z,18.50
2018-08-11T20:08:17.609Z,18.30
2018-08-11T20:10:45.856Z,18.20
2018-08-11T20:13:14.571Z,18.10
2018-08-11T20:15:42.826Z,18.00
2018-08-11T20:18:11.202Z,17.90
2018-08-11T20:20:39.507Z,17.80
2018-08-11T20:23:07.764Z,17.80
2018-08-11T20:25:36.307Z,17.70
2018-08-11T20:28:04.493Z,17.60
2018-08-11T20:30:32.773Z,17.50
2018-08-11T20:33:01.070Z,17.50
2018-08-11T20:35:29.306Z,17.40
2018-08-11T20:37:57.528Z,17.30
2018-08-11T20:40:25.776Z,17.30
2018-08-11T20:42:54.047Z,17.30
2018-08-11T20:45:22.335Z,17.20
2018-08-11T20:47:50.600Z,17.20
2018-08-11T20:50:18.906Z,17.10
2018-08-11T20:52:47.205Z,17.00
2018-08-11T20:55:15.463Z,17.00
2018-08-11T20:57:43.691Z,16.90
2018-08-11T21:00:12.976Z,16.80
2018-08-11T21:02:41.380Z,16.80
2018-08-11T21:05:11.968Z,16.80
2018-08-11T21:07:40.473Z,16.70
2018-08-11T21:10:11.158Z,16.70
2018-08-11T21:12:40.071Z,16.70
2018-08-11T21:15:09.030Z,16.70
2018-08-11T21:17:37.725Z,16.70
2018-08-11T21:20:07.855Z,16.70
2018-08-11T21:22:36.121Z,16.70
2018-08-11T21:25:05.143Z,16.70
2018-08-11T21:27:33.537Z,16.60
2018-08-11T21:30:01.955Z,16.50
2018-08-11T21:32:30.343Z,16.50
2018-08-11T21:34:58.725Z,16.40
2018-08-11T21:37:27.779Z,16.40
2018-08-11T21:39:56.554Z,16.30
2018-08-11T21:42:24.987Z,16.30
2018-08-11T21:44:53.273Z,16.30
2018-08-11T21:47:21.603Z,16.20
2018-08-11T21:49:49.923Z,16.20
2018-08-11T21:52:18.127Z,16.10
2018-08-11T21:54:46.374Z,16.20
2018-08-11T21:57:14.740Z,16.10
2018-08-11T21:59:43.047Z,16.00
2018-08-11T22:02:11.309Z,16.00
2018-08-11T22:04:39.545Z,16.00
2018-08-11T22:07:07.978Z,16.00
2018-08-11T22:09:36.227Z,16.00
2018-08-11T22:12:04.579Z,16.00
2018-08-11T22:14:32.945Z,15.90
2018-08-11T22:17:01.717Z,15.90
2018-08-11T22:19:30.449Z,15.80
2018-08-11T22:21:58.687Z,15.90
2018-08-11T22:24:26.928Z,15.80
2018-08-11T22:29:23.147Z,15.70
2018-08-11T22:31:51.349Z,15.80
2018-08-11T22:34:19.608Z,15.70
2018-08-11T22:36:47.801Z,15.80
2018-08-11T22:39:16.036Z,15.70
2018-08-11T22:41:44.269Z,15.70
2018-08-11T22:44:12.528Z,15.60
2018-08-11T22:46:40.770Z,15.50
2018-08-11T22:49:09.023Z,15.50
2018-08-11T22:51:37.237Z,15.50
2018-08-11T22:54:05.470Z,15.50
2018-08-11T22:56:33.807Z,15.50
2018-08-11T22:59:02.082Z,15.50
2018-08-11T23:01:30.374Z,15.60
2018-08-11T23:03:58.601Z,15.60
2018-08-11T23:06:26.848Z,15.60
2018-08-11T23:08:55.104Z,15.50
2018-08-11T23:11:23.348Z,15.50
2018-08-11T23:13:51.615Z,15.40
2018-08-11T23:16:19.873Z,15.40
2018-08-11T23:18:48.118Z,15.30
2018-08-11T23:21:16.370Z,15.30
2018-08-11T23:23:44.772Z,15.30
2018-08-11T23:26:13.016Z,15.30
2018-08-11T23:28:41.234Z,15.30
2018-08-11T23:31:09.459Z,15.30
2018-08-11T23:33:37.726Z,15.40
2018-08-11T23:36:05.988Z,15.30
2018-08-11T23:38:34.246Z,15.30
2018-08-11T23:41:02.481Z,15.40
2018-08-11T23:43:30.740Z,15.30
2018-08-11T23:45:58.966Z,15.30
2018-08-11T23:48:27.294Z,15.30
2018-08-11T23:50:55.504Z,15.30
2018-08-11T23:53:23.739Z,15.30
2018-08-11T23:55:52.013Z,15.30
2018-08-11T23:58:20.312Z,15.40
